Time;durP1;ratioP1;P1;durP2;ratioP2;P2;SDS_P1;SDS_P2;PMS_P1;PMS_P2;Temp;Humidity;BMP_temperature;BMP_pressure;BME280_temperature;BME280_humidity;BME280_pressure;Samples;Min_cycle;Max_cycle;Signal;HPM_P1;HPM_P2
2022/05/29 00:00:52;;;;;;;1.73;1.10;;;17.00;53.00;;;;;;10005780;28;20318;-66
2022/05/29 00:05:44;;;;;;;2.28;1.10;;;16.90;53.30;;;;;;10021062;28;20441;-63
2022/05/29 00:10:38;;;;;;;2.33;1.17;;;16.80;54.00;;;;;;10029163;28;20036;-66
2022/05/29 00:15:29;;;;;;;2.83;1.02;;;16.70;54.10;;;;;;10023620;28;20560;-64
2022/05/29 00:20:20;;;;;;;2.45;1.02;;;16.80;54.10;;;;;;10027633;28;20180;-63
2022/05/29 00:25:11;;;;;;;3.85;1.52;;;16.60;54.40;;;;;;10023046;28;20327;-68
2022/05/29 00:30:05;;;;;;;1.98;1.38;;;16.80;54.40;;;;;;10023414;28;20522;-61
2022/05/29 00:34:55;;;;;;;2.30;1.20;;;16.50;54.80;;;;;;10032451;28;20019;-61
2022/05/29 00:39:49;;;;;;;1.63;0.90;;;16.40;55.30;;;;;;10026838;28;20109;-65
2022/05/29 00:44:39;;;;;;;2.17;1.15;;;16.30;55.30;;;;;;10021583;28;20018;-62
2022/05/29 00:49:32;;;;;;;3.05;1.10;;;16.30;55.30;;;;;;10019245;28;20022;-62
2022/05/29 00:54:24;;;;;;;3.00;1.30;;;16.20;55.50;;;;;;10029657;28;20042;-63
2022/05/29 00:59:24;;;;;;;2.17;1.08;;;16.30;55.40;;;;;;10021684;28;20041;-61
2022/05/29 01:04:15;;;;;;;0.82;0.75;;;16.20;55.60;;;;;;10021853;28;20057;-62
2022/05/29 01:09:08;;;;;;;0.90;0.77;;;16.30;55.10;;;;;;10024782;28;20037;-63
2022/05/29 01:14:17;;;;;;;0.82;0.73;;;16.20;55.30;;;;;;10025365;28;20566;-61
2022/05/29 01:19:24;;;;;;;1.20;0.70;;;16.10;55.70;;;;;;10022158;28;20458;-61
2022/05/29 01:24:36;;;;;;;1.27;0.90;;;16.10;56.00;;;;;;10014814;28;20022;-60
2022/05/29 01:29:41;;;;;;;1.45;0.77;;;16.20;55.70;;;;;;10032334;28;20037;-60
2022/05/29 01:34:38;;;;;;;3.20;1.00;;;16.10;55.60;;;;;;10030135;28;20576;-59
2022/05/29 01:39:53;;;;;;;2.40;0.90;;;16.10;55.60;;;;;;10022675;28;20034;-60
2022/05/29 01:44:54;;;;;;;3.75;1.15;;;15.80;56.50;;;;;;10017498;28;20025;-58
2022/05/29 01:49:56;;;;;;;0.85;0.70;;;15.80;56.00;;;;;;10018783;28;20029;-59
2022/05/29 01:54:50;;;;;;;8.15;1.40;;;15.80;55.90;;;;;;10029833;28;20037;-68
2022/05/29 02:00:16;;;;;;;2.30;0.90;;;15.80;55.80;;;;;;10016715;28;20056;-60
2022/05/29 02:05:12;;;;;;;4.53;0.82;;;15.70;56.30;;;;;;10028383;28;20498;-61
2022/05/29 02:10:08;;;;;;;;;;;15.70;56.00;;;;;;10026390;28;20144;-60
2022/05/29 02:15:06;;;;;;;;;;;15.70;56.10;;;;;;10020817;28;19965;-59
2022/05/29 02:20:03;;;;;;;1.88;1.02;;;15.60;56.30;;;;;;10021715;28;20336;-59
2022/05/29 02:25:17;;;;;;;2.42;0.77;;;15.50;56.10;;;;;;10013983;28;20018;-60
2022/05/29 02:30:08;;;;;;;3.10;0.90;;;15.40;56.60;;;;;;10034912;28;20044;-62
2022/05/29 02:35:21;;;;;;;2.60;0.70;;;15.20;56.70;;;;;;10031805;28;20071;-61
2022/05/29 02:40:46;;;;;;;2.75;0.90;;;15.10;57.20;;;;;;10031126;28;20404;-59
2022/05/29 02:45:56;;;;;;;4.10;1.15;;;15.10;57.30;;;;;;10021350;28;20594;-63
2022/05/29 02:51:02;;;;;;;1.67;1.08;;;15.00;57.10;;;;;;10024525;28;20041;-59
2022/05/29 02:55:53;;;;;;;2.97;0.88;;;15.00;56.80;;;;;;10026349;28;20033;-59
2022/05/29 03:01:11;;;;;;;3.05;1.50;;;14.90;57.00;;;;;;10004166;28;20038;-60
2022/05/29 03:06:38;;;;;;;3.13;1.08;;;15.00;57.00;;;;;;10012023;28;20429;-59
2022/05/29 03:11:41;;;;;;;2.65;1.35;;;14.80;57.70;;;;;;10023389;28;20061;-59
2022/05/29 03:17:18;;;;;;;2.72;1.10;;;14.90;57.30;;;;;;10025124;28;20093;-59
2022/05/29 03:22:31;;;;;;;1.17;0.80;;;14.90;57.30;;;;;;9949351;28;20182;-59
2022/05/29 03:27:37;;;;;;;1.67;1.00;;;14.70;58.10;;;;;;10016422;28;20315;-61
2022/05/29 03:32:27;;;;;;;3.25;1.02;;;14.60;58.10;;;;;;10035056;28;20034;-60
2022/05/29 03:37:18;;;;;;;2.05;1.10;;;14.60;57.70;;;;;;10031432;28;20483;-59
2022/05/29 03:42:10;;;;;;;3.33;1.35;;;14.50;58.00;;;;;;10019530;28;20029;-62
2022/05/29 03:47:00;;;;;;;2.33;1.10;;;14.50;58.10;;;;;;10019253;28;20110;-59
2022/05/29 03:51:51;;;;;;;6.75;1.40;;;14.40;58.20;;;;;;10019446;28;20024;-59
2022/05/29 03:56:42;;;;;;;3.00;0.90;;;14.50;58.20;;;;;;10020227;28;20458;-59
2022/05/29 04:01:34;;;;;;;4.40;1.25;;;14.30;58.60;;;;;;10014218;28;20433;-61
2022/05/29 04:06:26;;;;;;;4.07;1.52;;;14.40;58.50;;;;;;10021460;28;20248;-59
2022/05/29 04:16:27;;;;;;;4.25;1.45;;;14.20;58.90;;;;;;9978095;28;1269050;-60
2022/05/29 04:21:18;;;;;;;1.02;0.70;;;14.30;58.80;;;;;;10027468;28;20404;-59
2022/05/29 04:26:13;;;;;;;5.95;1.50;;;14.10;60.30;;;;;;10008125;28;20514;-60
2022/05/29 04:31:04;;;;;;;3.03;1.05;;;14.00;60.40;;;;;;10009672;28;20029;-62
2022/05/29 04:35:56;;;;;;;2.05;1.38;;;13.90;60.90;;;;;;10031139;28;20045;-59
2022/05/29 04:40:47;;;;;;;4.03;1.17;;;13.60;60.80;;;;;;10028398;28;20081;-60
2022/05/29 04:45:39;;;;;;;3.00;1.60;;;13.70;61.30;;;;;;10022452;28;20076;-59
2022/05/29 04:50:30;;;;;;;5.40;1.55;;;13.90;61.40;;;;;;10022711;28;20060;-59
2022/05/29 04:55:21;;;;;;;5.00;1.80;;;13.90;61.50;;;;;;10025787;28;20386;-60
2022/05/29 05:00:12;;;;;;;3.40;1.85;;;13.70;62.10;;;;;;10019112;28;20132;-62
2022/05/29 05:05:03;;;;;;;3.88;1.63;;;13.70;62.10;;;;;;10018117;28;20061;-60
2022/05/29 05:09:54;;;;;;;3.83;1.70;;;13.70;62.70;;;;;;10025139;28;20071;-59
2022/05/29 05:14:45;;;;;;;2.80;1.38;;;13.80;62.80;;;;;;10026372;28;20084;-60
2022/05/29 05:19:35;;;;;;;2.92;1.10;;;13.70;64.10;;;;;;10031166;28;20041;-60
2022/05/29 05:24:27;;;;;;;5.32;1.45;;;13.70;65.10;;;;;;10007974;28;20112;-59
2022/05/29 05:29:18;;;;;;;5.82;1.00;;;13.70;65.50;;;;;;10016486;28;20423;-63
2022/05/29 05:34:08;;;;;;;8.27;1.67;;;13.80;65.70;;;;;;10023834;28;20276;-60
2022/05/29 05:38:59;;;;;;;4.00;1.10;;;13.80;66.00;;;;;;10023910;28;20042;-58
2022/05/29 05:43:49;;;;;;;8.00;1.15;;;13.90;66.30;;;;;;10018180;28;20049;-59
2022/05/29 05:48:40;;;;;;;2.10;1.10;;;13.90;66.60;;;;;;10019620;28;20029;-59
2022/05/29 05:53:32;;;;;;;3.70;1.60;;;14.10;66.60;;;;;;10027731;28;20445;-60
2022/05/29 05:58:23;;;;;;;5.28;1.70;;;14.20;66.30;;;;;;10017990;28;20069;-59
2022/05/29 06:03:14;;;;;;;2.10;1.13;;;14.30;66.40;;;;;;10015719;28;20038;-60
2022/05/29 06:08:05;;;;;;;3.70;1.15;;;14.20;66.90;;;;;;10016554;28;20116;-59
2022/05/29 06:13:04;;;;;;;2.05;0.88;;;14.20;66.90;;;;;;10022603;28;20029;-60
2022/05/29 06:17:55;;;;;;;4.88;1.45;;;14.20;67.10;;;;;;10014295;28;20049;-60
2022/05/29 06:22:46;;;;;;;2.03;1.20;;;14.20;67.20;;;;;;10023372;28;20028;-59
2022/05/29 06:27:41;;;;;;;5.50;1.35;;;14.20;67.30;;;;;;10017865;28;20376;-59
2022/05/29 06:32:32;;;;;;;1.83;1.45;;;14.30;67.80;;;;;;10013767;28;20485;-59
2022/05/29 06:37:23;;;;;;;1.75;1.10;;;14.40;67.30;;;;;;10018313;28;20037;-60
2022/05/29 06:42:14;;;;;;;4.53;2.08;;;14.30;67.80;;;;;;10017978;28;20105;-60
2022/05/29 06:47:07;;;;;;;3.03;1.58;;;14.10;68.70;;;;;;10028403;28;20142;-60
2022/05/29 06:51:57;;;;;;;1.90;1.48;;;14.10;68.40;;;;;;10030564;28;20383;-59
2022/05/29 06:56:48;;;;;;;4.00;1.30;;;14.20;68.50;;;;;;10020753;28;20258;-60
2022/05/29 07:07:00;;;;;;;3.40;1.20;;;14.30;68.80;;;;;;10016242;28;20091;-60
2022/05/29 07:11:56;;;;;;;1.35;0.98;;;14.30;69.10;;;;;;10024705;28;20570;-59
2022/05/29 07:16:47;;;;;;;3.38;1.50;;;14.30;69.50;;;;;;10022331;28;20069;-60
2022/05/29 07:21:42;;;;;;;1.80;1.50;;;14.60;68.90;;;;;;10032572;28;20022;-59
2022/05/29 07:26:33;;;;;;;2.92;1.17;;;14.70;69.10;;;;;;10024036;28;20145;-60
2022/05/29 07:31:23;;;;;;;2.85;1.50;;;15.20;68.60;;;;;;10017795;28;20026;-59
2022/05/29 07:36:17;;;;;;;4.72;1.35;;;15.20;68.40;;;;;;10031503;28;20038;-59
2022/05/29 07:46:18;;;;;;;2.75;0.90;;;15.20;68.40;;;;;;10020628;28;20041;-59
2022/05/29 07:51:10;;;;;;;3.58;0.90;;;15.40;68.10;;;;;;10031968;28;20109;-58
2022/05/29 07:56:02;;;;;;;3.47;1.23;;;15.60;67.70;;;;;;10016398;28;20124;-60
2022/05/29 08:00:53;;;;;;;6.18;1.35;;;15.70;67.30;;;;;;10026394;28;20014;-59
2022/05/29 08:05:43;;;;;;;1.98;1.40;;;15.60;67.50;;;;;;10019761;28;20416;-61
2022/05/29 08:10:36;;;;;;;2.72;1.15;;;15.60;67.30;;;;;;10029065;28;20096;-58
2022/05/29 08:15:27;;;;;;;2.42;1.00;;;15.20;67.40;;;;;;10020816;28;20041;-60
2022/05/29 08:20:18;;;;;;;2.55;0.93;;;15.00;67.50;;;;;;10025356;28;20065;-61
2022/05/29 08:30:41;;;;;;;3.97;1.45;;;14.90;66.90;;;;;;10017947;28;20083;-60
2022/05/29 08:35:33;;;;;;;1.20;0.80;;;14.90;67.20;;;;;;10029801;28;20126;-61
2022/05/29 08:40:24;;;;;;;5.72;1.48;;;15.10;66.60;;;;;;10025401;28;20022;-59
2022/05/29 08:45:18;;;;;;;1.90;0.90;;;15.00;66.50;;;;;;10019183;28;20022;-64
2022/05/29 08:50:14;;;;;;;4.30;2.53;;;15.10;66.30;;;;;;10028162;28;20057;-66
2022/05/29 08:55:21;;;;;;;3.15;0.80;;;15.40;66.20;;;;;;10029044;28;20053;-65
2022/05/29 09:00:35;;;;;;;3.20;1.25;;;15.50;65.60;;;;;;10021538;28;20037;-63
2022/05/29 09:05:51;;;;;;;2.78;1.50;;;15.40;65.80;;;;;;10017859;28;20017;-60
2022/05/29 09:10:45;;;;;;;3.10;1.00;;;15.60;65.20;;;;;;10019733;28;20036;-61
2022/05/29 09:15:43;;;;;;;2.17;1.50;;;15.80;65.10;;;;;;10025081;28;20029;-62
2022/05/29 09:21:15;;;;;;;5.18;0.93;;;15.60;64.90;;;;;;10031387;28;20057;-63
2022/05/29 09:26:10;;;;;;;2.50;1.00;;;15.80;64.50;;;;;;9814385;29;20213;-61
2022/05/29 09:31:12;;;;;;;2.83;1.40;;;16.30;63.70;;;;;;9969976;28;20037;-63
2022/05/29 09:36:19;;;;;;;4.70;1.38;;;16.60;63.00;;;;;;10020539;28;20088;-60
2022/05/29 09:41:28;;;;;;;4.05;1.50;;;16.80;63.10;;;;;;10022845;28;20072;-61
2022/05/29 09:46:23;;;;;;;5.47;1.55;;;16.90;62.70;;;;;;10016333;28;20026;-60
2022/05/29 09:51:21;;;;;;;4.47;1.70;;;16.30;62.90;;;;;;10009137;28;20120;-62
2022/05/29 09:56:13;;;;;;;8.27;3.30;;;16.60;63.00;;;;;;10024286;28;20026;-59
2022/05/29 10:01:07;;;;;;;4.65;2.10;;;17.10;62.30;;;;;;10025690;28;20190;-63
2022/05/29 10:06:22;;;;;;;3.92;1.85;;;17.10;62.10;;;;;;10016224;28;20026;-62
2022/05/29 10:11:22;;;;;;;5.47;1.85;;;17.30;61.60;;;;;;10017169;28;20069;-60
2022/05/29 10:16:33;;;;;;;6.32;3.15;;;16.90;62.30;;;;;;10026280;28;20130;-63
2022/05/29 10:21:27;;;;;;;3.20;1.58;;;17.70;60.90;;;;;;10023903;28;20034;-65
2022/05/29 10:26:35;;;;;;;5.53;2.58;;;17.70;61.50;;;;;;10003688;28;20399;-62
2022/05/29 10:31:32;;;;;;;6.65;2.13;;;17.60;61.50;;;;;;10018417;28;20538;-59
2022/05/29 10:36:28;;;;;;;6.20;2.50;;;17.50;61.90;;;;;;10020495;28;20068;-62
2022/05/29 10:41:34;;;;;;;3.53;1.75;;;17.50;61.70;;;;;;10020465;28;20022;-64
2022/05/29 10:46:48;;;;;;;5.40;2.10;;;17.10;62.00;;;;;;10015420;28;20022;-62
2022/05/29 10:51:41;;;;;;;4.28;1.75;;;17.30;61.70;;;;;;10023271;28;20024;-64
2022/05/29 10:57:08;;;;;;;3.92;2.00;;;17.40;61.20;;;;;;10033687;28;20696;-59
2022/05/29 11:07:46;;;;;;;2.90;1.83;;;17.90;59.10;;;;;;10019487;28;20095;-62
2022/05/29 11:12:50;;;;;;;3.35;1.92;;;18.10;59.60;;;;;;10015408;28;20048;-64
2022/05/29 11:17:51;;;;;;;3.78;2.42;;;17.70;59.70;;;;;;10035021;28;20049;-59
2022/05/29 11:23:02;;;;;;;5.57;2.60;;;17.80;59.80;;;;;;10037450;28;20063;-64
2022/05/29 11:28:21;;;;;;;5.45;1.50;;;17.80;59.10;;;;;;10009983;28;20033;-62
2022/05/29 11:33:51;;;;;;;3.00;1.75;;;17.50;58.00;;;;;;10021914;28;20076;-62
2022/05/29 11:39:00;;;;;;;3.97;1.17;;;17.40;58.70;;;;;;9989746;28;20504;-59
2022/05/29 11:44:02;;;;;;;2.63;1.30;;;17.80;58.40;;;;;;10023320;28;20412;-58
2022/05/29 11:54:38;;;;;;;7.72;1.80;;;18.40;56.70;;;;;;10022672;28;20041;-63
2022/05/29 11:59:51;;;;;;;5.32;1.88;;;18.10;57.20;;;;;;10020316;28;20111;-60
2022/05/29 12:05:07;;;;;;;4.88;1.88;;;17.40;58.50;;;;;;10014183;28;20591;-61
2022/05/29 12:10:05;;;;;;;1.70;1.30;;;17.30;58.10;;;;;;10018632;28;20046;-63
2022/05/29 12:14:59;;;;;;;6.53;2.65;;;17.40;57.80;;;;;;10026393;28;20029;-60
2022/05/29 12:20:06;;;;;;;2.50;1.33;;;17.90;57.90;;;;;;10032480;28;20124;-61
2022/05/29 12:24:57;;;;;;;1.83;1.30;;;18.60;56.60;;;;;;10031689;28;20080;-60
2022/05/29 12:30:11;;;;;;;3.42;2.17;;;18.60;56.70;;;;;;10023537;28;20477;-63
2022/05/29 12:35:23;;;;;;;4.43;1.33;;;19.40;57.00;;;;;;10022276;28;20034;-58
2022/05/29 12:40:16;;;;;;;2.88;1.15;;;19.90;53.70;;;;;;10027600;28;20030;-60
2022/05/29 12:45:16;;;;;;;2.55;1.10;;;19.80;55.10;;;;;;10021074;28;20057;-60
2022/05/29 12:50:44;;;;;;;1.05;0.88;;;20.40;53.70;;;;;;10016803;28;20097;-60
2022/05/29 12:55:56;;;;;;;2.90;1.05;;;21.00;52.70;;;;;;10020884;28;20400;-60
2022/05/29 13:01:09;;;;;;;2.38;1.00;;;21.80;52.40;;;;;;10024608;28;20079;-59
2022/05/29 13:06:04;;;;;;;2.87;1.00;;;22.80;51.70;;;;;;10016538;28;20021;-60
2022/05/29 13:10:57;;;;;;;3.58;1.00;;;23.70;50.60;;;;;;10028187;28;20076;-59
2022/05/29 13:15:49;;;;;;;0.95;0.85;;;24.40;49.00;;;;;;10025188;28;20120;-59
2022/05/29 13:21:11;;;;;;;2.60;0.93;;;25.00;48.30;;;;;;10027856;28;20077;-61
2022/05/29 13:26:02;;;;;;;3.80;1.27;;;25.20;45.50;;;;;;10025057;28;20045;-63
2022/05/29 13:31:08;;;;;;;3.10;1.40;;;25.70;46.20;;;;;;10017018;28;20436;-59
2022/05/29 13:36:01;;;;;;;2.45;1.10;;;26.00;44.00;;;;;;10022309;28;20665;-61
2022/05/29 13:41:04;;;;;;;2.20;1.05;;;26.10;43.50;;;;;;10020134;28;20037;-61
2022/05/29 13:46:28;;;;;;;2.05;0.80;;;26.50;42.60;;;;;;10013497;28;20248;-62
2022/05/29 13:51:28;;;;;;;4.15;1.33;;;27.20;41.30;;;;;;10011770;28;20108;-62
2022/05/29 13:56:19;;;;;;;4.20;1.50;;;28.30;40.70;;;;;;10022847;28;20030;-61
2022/05/29 14:07:09;;;;;;;2.95;1.10;;;28.20;38.80;;;;;;10007202;28;20041;-61
2022/05/29 14:12:03;;;;;;;1.40;1.00;;;28.40;37.30;;;;;;10021221;28;20435;-62
2022/05/29 14:17:00;;;;;;;3.40;1.20;;;27.70;38.90;;;;;;10024694;28;20048;-60
2022/05/29 14:22:11;;;;;;;1.73;1.13;;;28.20;38.10;;;;;;10024226;28;20018;-60
2022/05/29 14:28:02;;;;;;;1.70;0.95;;;29.10;37.30;;;;;;10023653;28;20032;-61
2022/05/29 14:33:09;;;;;;;1.88;0.93;;;28.90;34.30;;;;;;10025551;28;20415;-61
2022/05/29 14:38:27;;;;;;;1.80;0.95;;;27.00;36.80;;;;;;10011456;28;20160;-60
2022/05/29 14:43:29;;;;;;;1.90;0.90;;;23.70;37.90;;;;;;10029457;28;20030;-59
2022/05/29 14:48:27;;;;;;;2.88;0.82;;;24.80;37.00;;;;;;10022087;28;20066;-60
2022/05/29 14:54:03;;;;;;;2.00;0.82;;;24.90;36.10;;;;;;10021945;28;20029;-60
2022/05/29 14:58:56;;;;;;;2.25;1.20;;;22.70;37.50;;;;;;10024755;28;20559;-61
2022/05/29 15:03:54;;;;;;;2.08;0.80;;;26.40;35.70;;;;;;10014197;28;20057;-59
2022/05/29 15:14:02;;;;;;;1.50;1.00;;;25.40;35.90;;;;;;10023037;28;20575;-60
2022/05/29 15:18:53;;;;;;;0.82;0.68;;;24.30;36.30;;;;;;10035688;28;20065;-59
2022/05/29 15:24:09;;;;;;;2.08;1.45;;;23.70;36.60;;;;;;10040207;28;20042;-59
2022/05/29 15:29:14;;;;;;;1.00;0.88;;;24.30;35.90;;;;;;10021957;28;20030;-58
2022/05/29 15:34:17;;;;;;;2.03;0.90;;;26.50;34.50;;;;;;10021143;28;20033;-59
2022/05/29 15:39:19;;;;;;;1.40;1.00;;;25.90;34.60;;;;;;10022679;28;20053;-59
2022/05/29 15:44:13;;;;;;;2.88;1.00;;;27.50;34.20;;;;;;10020436;28;20025;-59
2022/05/29 15:49:25;;;;;;;1.45;1.08;;;29.30;33.20;;;;;;10022142;28;20503;-60
2022/05/29 15:54:25;;;;;;;2.87;1.30;;;26.80;31.70;;;;;;10013362;28;20077;-64
2022/05/29 15:59:34;;;;;;;1.95;1.38;;;27.00;33.80;;;;;;10025799;28;20033;-60
2022/05/29 16:04:38;;;;;;;2.05;0.85;;;27.60;33.10;;;;;;10022376;28;20030;-60
2022/05/29 16:09:47;;;;;;;3.78;1.23;;;28.90;32.40;;;;;;10014244;28;20025;-61
2022/05/29 16:14:42;;;;;;;2.10;1.30;;;28.70;30.80;;;;;;10013607;28;20108;-59
2022/05/29 16:19:50;;;;;;;1.02;0.60;;;29.00;32.60;;;;;;10018508;28;20501;-59
2022/05/29 16:24:46;;;;;;;3.95;1.02;;;28.50;31.90;;;;;;10024625;28;20028;-61
2022/05/29 16:29:44;;;;;;;3.22;2.08;;;26.20;32.90;;;;;;10016040;28;20033;-62
2022/05/29 16:35:18;;;;;;;4.15;1.67;;;23.60;35.20;;;;;;10020528;28;20024;-61
2022/05/29 16:51:09;;;;;;;3.58;1.55;;;24.00;35.90;;;;;;10020295;28;20358;-65
2022/05/29 16:56:33;;;;;;;5.32;1.40;;;27.00;32.90;;;;;;10018846;28;20034;-63
2022/05/29 17:01:37;;;;;;;4.05;1.23;;;23.70;35.80;;;;;;10024744;28;20030;-65
2022/05/29 17:06:33;;;;;;;2.90;1.05;;;25.10;35.20;;;;;;10027277;28;20526;-62
2022/05/29 17:11:25;;;;;;;1.88;1.02;;;24.10;35.60;;;;;;10019796;28;20157;-66
2022/05/29 17:16:18;;;;;;;3.42;1.73;;;23.50;36.30;;;;;;10021923;28;20095;-63
2022/05/29 17:21:12;;;;;;;2.53;1.70;;;22.60;36.80;;;;;;10036898;28;20038;-63
2022/05/29 17:26:11;;;;;;;5.70;2.13;;;21.80;37.30;;;;;;10009769;28;20029;-63
2022/05/29 17:31:23;;;;;;;2.38;1.52;;;22.80;36.40;;;;;;10028045;28;20109;-67
2022/05/29 17:36:36;;;;;;;3.35;1.23;;;24.40;35.50;;;;;;10017210;28;20095;-62
2022/05/29 17:41:29;;;;;;;2.13;1.17;;;25.90;34.50;;;;;;9998902;28;20518;-66
2022/05/29 17:46:30;;;;;;;3.72;2.40;;;26.30;34.60;;;;;;10015906;28;20055;-65
2022/05/29 17:51:47;;;;;;;4.57;1.70;;;26.00;34.80;;;;;;10013035;28;20607;-65
2022/05/29 17:56:38;;;;;;;2.85;1.55;;;26.10;34.80;;;;;;9983609;28;20108;-64
2022/05/29 18:01:30;;;;;;;2.20;1.45;;;24.20;36.10;;;;;;10014284;28;20521;-63
2022/05/29 18:06:20;;;;;;;1.50;0.88;;;23.00;36.90;;;;;;10025058;28;20037;-62
2022/05/29 18:11:16;;;;;;;2.20;1.33;;;21.80;38.20;;;;;;10019097;28;20045;-64
2022/05/29 18:16:07;;;;;;;8.05;3.58;;;21.60;37.40;;;;;;10020922;28;20107;-64
2022/05/29 18:20:58;;;;;;;3.20;2.00;;;21.40;37.30;;;;;;10015327;28;20030;-63
2022/05/29 18:25:54;;;;;;;4.10;1.50;;;21.30;37.10;;;;;;10030891;28;20028;-64
2022/05/29 18:30:45;;;;;;;3.78;2.55;;;21.10;37.40;;;;;;10025662;28;20471;-64
2022/05/29 18:35:36;;;;;;;2.60;1.40;;;21.00;37.40;;;;;;10018442;28;20025;-64
2022/05/29 18:40:28;;;;;;;4.80;2.22;;;20.90;37.60;;;;;;10014754;28;20038;-63
2022/05/29 18:45:19;;;;;;;4.03;2.28;;;20.80;37.60;;;;;;10016494;28;20030;-65
2022/05/29 18:50:11;;;;;;;4.80;1.48;;;20.60;37.80;;;;;;10008316;28;20389;-64
2022/05/29 18:55:03;;;;;;;2.47;1.50;;;20.50;37.90;;;;;;10031508;28;20461;-68
2022/05/29 18:59:59;;;;;;;2.15;1.30;;;20.30;38.20;;;;;;10027363;28;20065;-68
2022/05/29 19:04:49;;;;;;;4.18;1.92;;;20.20;38.30;;;;;;10022486;28;20037;-64
2022/05/29 19:09:40;;;;;;;4.60;1.65;;;20.20;38.40;;;;;;10019475;28;20029;-66
2022/05/29 19:14:32;;;;;;;3.03;1.50;;;20.00;38.70;;;;;;10015499;28;20034;-66
2022/05/29 19:19:22;;;;;;;4.85;1.80;;;19.90;38.90;;;;;;10026490;28;20111;-65
2022/05/29 19:24:15;;;;;;;2.40;1.17;;;19.80;39.30;;;;;;10040368;28;20021;-65
2022/05/29 19:29:07;;;;;;;4.50;1.50;;;19.70;39.50;;;;;;10035188;28;20022;-68
2022/05/29 19:34:02;;;;;;;7.10;1.90;;;19.70;39.70;;;;;;10030058;28;20026;-67
2022/05/29 19:38:53;;;;;;;2.83;1.33;;;19.50;40.00;;;;;;10024750;28;20079;-65
2022/05/29 19:43:47;;;;;;;3.90;1.55;;;19.40;40.10;;;;;;10003135;28;20045;-65
2022/05/29 19:48:39;;;;;;;3.20;1.45;;;19.30;40.40;;;;;;10049805;28;20033;-64
2022/05/29 19:53:29;;;;;;;4.15;1.20;;;19.20;40.40;;;;;;10036873;28;20507;-65
2022/05/29 19:58:20;;;;;;;2.78;1.25;;;19.20;40.50;;;;;;10017945;28;20185;-67
2022/05/29 20:03:11;;;;;;;4.93;2.83;;;19.10;40.80;;;;;;10016766;28;20492;-65
2022/05/29 20:08:02;;;;;;;3.60;1.33;;;19.00;40.90;;;;;;10022944;28;20045;-67
2022/05/29 20:12:52;;;;;;;3.17;1.60;;;18.90;41.00;;;;;;9997038;28;20025;-67
2022/05/29 20:17:43;;;;;;;5.68;1.92;;;18.80;41.10;;;;;;10018412;28;20048;-65
2022/05/29 20:22:34;;;;;;;8.40;3.55;;;18.50;41.50;;;;;;10039201;28;20026;-66
2022/05/29 20:27:25;;;;;;;4.97;2.03;;;18.40;41.60;;;;;;10017948;28;20456;-65
2022/05/29 20:32:16;;;;;;;4.82;2.35;;;18.10;41.80;;;;;;10027191;28;20034;-64
2022/05/29 20:37:07;;;;;;;2.88;1.77;;;18.00;42.00;;;;;;10025096;28;20041;-65
2022/05/29 20:41:57;;;;;;;3.47;1.77;;;17.80;42.20;;;;;;10018634;28;20034;-64
2022/05/29 20:52:06;;;;;;;3.63;1.70;;;17.80;42.30;;;;;;10046347;28;20066;-64
2022/05/29 20:56:57;;;;;;;4.20;1.60;;;17.80;42.40;;;;;;10034511;28;20295;-64
2022/05/29 21:01:51;;;;;;;3.60;1.48;;;17.70;42.60;;;;;;10033686;28;20017;-63
2022/05/29 21:06:45;;;;;;;2.22;1.13;;;17.70;42.70;;;;;;10024767;28;20196;-66
2022/05/29 21:11:36;;;;;;;3.35;1.75;;;17.50;43.10;;;;;;10013607;28;20068;-63
2022/05/29 21:16:27;;;;;;;3.38;1.33;;;17.40;43.10;;;;;;10024595;28;20471;-66
2022/05/29 21:21:20;;;;;;;2.58;1.45;;;17.40;43.50;;;;;;10028338;28;20124;-64
2022/05/29 21:26:11;;;;;;;2.65;1.40;;;17.30;43.70;;;;;;10018285;28;20274;-64
2022/05/29 21:31:06;;;;;;;2.05;1.05;;;17.30;44.00;;;;;;9994084;28;20042;-64
2022/05/29 21:35:57;;;;;;;3.08;1.92;;;17.10;44.10;;;;;;10016367;28;20029;-63
2022/05/29 21:40:57;;;;;;;2.33;1.05;;;17.00;44.40;;;;;;10015386;28;20034;-63
2022/05/29 21:46:04;;;;;;;3.22;1.20;;;17.00;44.90;;;;;;10014531;28;20025;-64
2022/05/29 21:50:55;;;;;;;1.33;1.05;;;17.00;45.10;;;;;;10016266;28;20033;-63
2022/05/29 21:55:46;;;;;;;3.38;1.90;;;16.90;45.10;;;;;;10025976;28;20030;-63
2022/05/29 22:00:52;;;;;;;3.47;1.35;;;16.80;45.30;;;;;;10016052;28;20041;-63
2022/05/29 22:05:42;;;;;;;2.05;1.58;;;16.80;45.80;;;;;;10014614;28;20054;-63
2022/05/29 22:10:33;;;;;;;0.93;0.90;;;16.60;46.90;;;;;;10009505;28;20082;-64
2022/05/29 22:15:25;;;;;;;3.10;1.40;;;16.60;47.50;;;;;;10012626;28;20119;-64
2022/05/29 22:20:17;;;;;;;2.08;1.15;;;16.40;48.20;;;;;;10015828;28;20041;-64
2022/05/29 22:25:13;;;;;;;2.10;0.98;;;16.40;48.50;;;;;;10014062;28;20048;-63
2022/05/29 22:30:05;;;;;;;1.52;1.23;;;16.30;48.90;;;;;;10019234;28;20037;-62
2022/05/29 22:35:07;;;;;;;2.53;1.42;;;16.30;49.10;;;;;;10024255;28;20404;-62
2022/05/29 22:39:58;;;;;;;2.10;1.15;;;16.40;49.10;;;;;;10019931;28;20045;-63
2022/05/29 22:44:49;;;;;;;2.30;0.95;;;16.40;49.10;;;;;;10012532;28;20563;-63
2022/05/29 22:50:06;;;;;;;2.47;1.38;;;16.20;49.50;;;;;;9996517;28;20327;-62
2022/05/29 22:55:07;;;;;;;1.65;1.30;;;16.20;50.10;;;;;;10041044;28;20393;-62
2022/05/29 23:00:04;;;;;;;3.00;1.60;;;16.20;50.00;;;;;;10042172;28;20231;-62
2022/05/29 23:04:55;;;;;;;1.98;1.25;;;16.10;50.30;;;;;;10034705;28;20062;-63
2022/05/29 23:09:46;;;;;;;1.60;1.42;;;15.90;50.80;;;;;;10030838;28;20022;-61
2022/05/29 23:14:37;;;;;;;3.97;2.03;;;15.90;51.10;;;;;;10023307;28;20036;-60
2022/05/29 23:19:28;;;;;;;4.43;1.60;;;15.80;51.90;;;;;;10048814;28;20103;-62
2022/05/29 23:24:23;;;;;;;2.53;1.50;;;16.00;51.70;;;;;;10046120;28;20052;-60
2022/05/29 23:29:14;;;;;;;1.85;1.15;;;15.70;52.60;;;;;;10033622;28;20604;-62
2022/05/29 23:34:04;;;;;;;5.03;2.67;;;15.60;52.90;;;;;;10036230;28;20117;-62
2022/05/29 23:38:55;;;;;;;2.90;1.52;;;15.50;53.70;;;;;;10032434;28;20113;-62
2022/05/29 23:43:46;;;;;;;1.10;0.98;;;15.50;53.60;;;;;;10022581;28;20075;-61
2022/05/29 23:48:40;;;;;;;2.25;1.45;;;15.50;54.00;;;;;;10026496;28;20029;-60
2022/05/29 23:53:31;;;;;;;1.40;1.30;;;15.50;54.40;;;;;;10052259;28;20114;-61
2022/05/29 23:58:22;;;;;;;2.05;1.17;;;15.40;54.90;;;;;;10032918;28;20037;-60
